createdAt,value
2023-03-26T00:00:04.797Z,942.8900
2023-03-26T00:01:06.431Z,942.8962
2023-03-26T00:02:08.255Z,942.8985
2023-03-26T00:03:09.703Z,942.8908
2023-03-26T00:04:11.468Z,942.8685
2023-03-26T00:05:13.102Z,942.8423
2023-03-26T00:06:14.664Z,942.8185
2023-03-26T00:07:16.403Z,942.7946
2023-03-26T00:08:18.068Z,942.7823
2023-03-26T00:09:19.578Z,942.7846
2023-03-26T00:10:21.365Z,942.7769
2023-03-26T00:11:22.937Z,942.7592
2023-03-26T00:12:24.584Z,942.7485
2023-03-26T00:13:26.231Z,942.7377
2023-03-26T00:14:27.862Z,942.7177
2023-03-26T00:15:29.484Z,942.7039
2023-03-26T00:16:31.197Z,942.6877
2023-03-26T00:17:32.830Z,942.6638
2023-03-26T00:18:34.504Z,942.6447
2023-03-26T00:19:36.090Z,942.6138
2023-03-26T00:20:37.740Z,942.6177
2023-03-26T00:21:39.394Z,942.6146
2023-03-26T00:22:41.109Z,942.6200
2023-03-26T00:23:42.671Z,942.6200
2023-03-26T00:24:44.339Z,942.6192
2023-03-26T00:25:46.771Z,942.6077
2023-03-26T00:26:47.648Z,942.6008
2023-03-26T00:27:49.294Z,942.6115
2023-03-26T00:28:50.953Z,942.6146
2023-03-26T00:29:52.563Z,942.6100
2023-03-26T00:30:54.279Z,942.6031
2023-03-26T00:31:55.871Z,942.6077
2023-03-26T00:32:57.570Z,942.6185
2023-03-26T00:33:59.161Z,942.6130
2023-03-26T00:35:00.845Z,942.6185
2023-03-26T00:36:04.397Z,942.6208
2023-03-26T00:37:04.125Z,942.6308
2023-03-26T00:38:05.776Z,942.6285
2023-03-26T00:39:07.417Z,942.6292
2023-03-26T00:40:09.040Z,942.6208
2023-03-26T00:41:10.712Z,942.6146
2023-03-26T00:42:12.342Z,942.5939
2023-03-26T00:43:14.019Z,942.5692
2023-03-26T00:44:15.643Z,942.5408
2023-03-26T00:45:17.304Z,942.5331
2023-03-26T00:46:18.998Z,942.5323
2023-03-26T00:47:20.761Z,942.5085
2023-03-26T00:48:28.846Z,942.5085
2023-03-26T00:49:23.890Z,942.5023
2023-03-26T00:50:25.529Z,942.4854
2023-03-26T00:51:27.218Z,942.4715
2023-03-26T00:52:28.833Z,942.4715
2023-03-26T00:53:30.667Z,942.4677
2023-03-26T00:54:32.142Z,942.4753
2023-03-26T00:55:33.805Z,942.4769
2023-03-26T00:56:35.476Z,942.4738
2023-03-26T00:57:37.185Z,942.4738
2023-03-26T00:58:38.751Z,942.4785
2023-03-26T00:59:40.403Z,942.4669
2023-03-26T01:00:42.034Z,942.4531
2023-03-26T01:01:43.726Z,942.4261
2023-03-26T01:02:45.435Z,942.4077
2023-03-26T01:04:04.830Z,942.3962
2023-03-26T01:04:48.759Z,942.3808
2023-03-26T01:05:50.303Z,942.3508
2023-03-26T01:06:51.916Z,942.3146
2023-03-26T01:07:53.590Z,942.2692
2023-03-26T01:08:55.251Z,942.2492
2023-03-26T01:09:56.871Z,942.2308
2023-03-26T01:10:58.514Z,942.2315
2023-03-26T01:12:00.181Z,942.2253
2023-03-26T01:13:01.812Z,942.2161
2023-03-26T01:14:03.502Z,942.2100
2023-03-26T01:15:05.124Z,942.1923
2023-03-26T01:16:06.822Z,942.1830
2023-03-26T01:17:08.405Z,942.1754
2023-03-26T01:18:10.092Z,942.1730
2023-03-26T01:19:11.721Z,942.1600
2023-03-26T01:20:13.376Z,942.1577
2023-03-26T01:21:15.000Z,942.1638
2023-03-26T01:22:16.687Z,942.1685
2023-03-26T01:23:18.326Z,942.1631
2023-03-26T01:24:20.001Z,942.1661
2023-03-26T01:25:21.604Z,942.1462
2023-03-26T01:26:23.261Z,942.0946
2023-03-26T01:27:24.902Z,942.0308
2023-03-26T01:28:26.573Z,941.9631
2023-03-26T01:29:28.242Z,941.9285
2023-03-26T01:30:29.869Z,941.9108
2023-03-26T01:31:31.483Z,941.8770
2023-03-26T01:32:33.321Z,941.8508
2023-03-26T01:33:34.855Z,941.8208
2023-03-26T01:34:36.502Z,941.7953
2023-03-26T01:35:38.118Z,941.7861
2023-03-26T01:36:39.765Z,941.8092
2023-03-26T01:37:41.381Z,941.8162
2023-03-26T01:38:43.060Z,941.8038
2023-03-26T01:39:44.713Z,941.7961
2023-03-26T01:40:46.351Z,941.8015
2023-03-26T01:41:47.986Z,941.7953
2023-03-26T01:42:49.661Z,941.7816
2023-03-26T01:43:51.289Z,941.7538
2023-03-26T01:44:52.978Z,941.7285
2023-03-26T01:45:54.738Z,941.7177
2023-03-26T01:46:56.339Z,941.7047
2023-03-26T01:47:57.905Z,941.6777
2023-03-26T01:48:59.532Z,941.6516
2023-03-26T01:50:01.207Z,941.6262
2023-03-26T01:51:02.838Z,941.6038
2023-03-26T01:52:04.470Z,941.5847
2023-03-26T01:53:06.143Z,941.5677
2023-03-26T01:54:07.840Z,941.5515
2023-03-26T01:55:09.533Z,941.5423
2023-03-26T01:56:11.172Z,941.5269
2023-03-26T01:57:12.822Z,941.4769
2023-03-26T01:58:14.439Z,941.3962
2023-03-26T01:59:16.117Z,941.3200
2023-03-26T02:00:17.777Z,941.2747
2023-03-26T02:01:19.481Z,941.2708
2023-03-26T02:02:21.173Z,941.2369
2023-03-26T02:03:22.854Z,941.1761
2023-03-26T02:04:24.362Z,941.1000
2023-03-26T02:05:26.063Z,941.0239
2023-03-26T02:06:27.652Z,940.9992
2023-03-26T02:07:29.328Z,940.9923
2023-03-26T02:08:30.963Z,940.9708
2023-03-26T02:09:32.614Z,940.9562
2023-03-26T02:10:34.270Z,940.9400
2023-03-26T02:11:36.224Z,940.9269
2023-03-26T02:12:37.544Z,940.9438
2023-03-26T02:13:39.217Z,940.9938
2023-03-26T02:14:40.862Z,941.0485
2023-03-26T02:15:42.541Z,941.0692
2023-03-26T02:16:44.166Z,941.0215
2023-03-26T02:17:45.827Z,940.8854
2023-03-26T02:18:47.498Z,940.7615
2023-03-26T02:19:49.125Z,940.6869
2023-03-26T02:20:50.773Z,940.6362
2023-03-26T02:21:52.408Z,940.6154
2023-03-26T02:22:54.043Z,940.6177
2023-03-26T02:23:55.715Z,940.6277
2023-03-26T02:24:57.349Z,940.6415
2023-03-26T02:25:59.043Z,940.6584
2023-03-26T02:27:00.642Z,940.6523
2023-03-26T02:28:02.304Z,940.6246
2023-03-26T02:29:03.941Z,940.5884
2023-03-26T02:30:05.606Z,940.5662
2023-03-26T02:31:07.274Z,940.5646
2023-03-26T02:32:08.909Z,940.5592
2023-03-26T02:33:10.591Z,940.5208
2023-03-26T02:34:12.220Z,940.4992
2023-03-26T02:35:13.894Z,940.4900
2023-03-26T02:36:15.601Z,940.4815
2023-03-26T02:37:17.145Z,940.4554
2023-03-26T02:38:18.775Z,940.4438
2023-03-26T02:39:20.445Z,940.4438
2023-03-26T02:40:22.096Z,940.4338
2023-03-26T02:41:23.749Z,940.3923
2023-03-26T02:42:25.385Z,940.3546
2023-03-26T02:43:27.019Z,940.3270
2023-03-26T02:44:28.680Z,940.2816
2023-03-26T02:45:30.315Z,940.2462
2023-03-26T02:46:32.054Z,940.2123
2023-03-26T02:47:33.692Z,940.1700
2023-03-26T02:48:35.271Z,940.1531
2023-03-26T02:49:36.899Z,940.1454
2023-03-26T02:50:38.578Z,940.1408
2023-03-26T02:51:40.210Z,940.1085
2023-03-26T02:52:41.871Z,940.0792
2023-03-26T02:53:43.496Z,940.0630
2023-03-26T02:54:45.154Z,940.0692
2023-03-26T02:55:46.792Z,940.0662
2023-03-26T02:56:48.505Z,940.0662
2023-03-26T02:57:50.096Z,940.0515
2023-03-26T02:58:51.757Z,940.0485
2023-03-26T02:59:53.391Z,940.0284
2023-03-26T03:00:55.143Z,939.9869
2023-03-26T03:01:56.759Z,939.9408
2023-03-26T03:02:58.443Z,939.8815
2023-03-26T03:03:59.984Z,939.8192
2023-03-26T03:05:01.765Z,939.7846
2023-03-26T03:06:03.269Z,939.7747
2023-03-26T03:07:05.069Z,939.7769
2023-03-26T03:08:06.643Z,939.8085
2023-03-26T03:09:08.284Z,939.8347
2023-03-26T03:10:09.973Z,939.8100
2023-03-26T03:11:11.592Z,939.7639
2023-03-26T03:12:13.299Z,939.7538
2023-03-26T03:13:14.941Z,939.7323
2023-03-26T03:14:16.511Z,939.7369
2023-03-26T03:15:18.247Z,939.7623
2023-03-26T03:16:19.921Z,939.7670
2023-03-26T03:17:21.559Z,939.7492
2023-03-26T03:18:23.194Z,939.7700
2023-03-26T03:19:24.745Z,939.7800
2023-03-26T03:20:26.363Z,939.7615
2023-03-26T03:21:28.037Z,939.7654
2023-03-26T03:22:29.689Z,939.7692
2023-03-26T03:23:31.319Z,939.7492
2023-03-26T03:24:32.961Z,939.7292
2023-03-26T03:25:34.636Z,939.7108
2023-03-26T03:26:36.253Z,939.6723
2023-03-26T03:27:37.949Z,939.6669
2023-03-26T03:28:39.566Z,939.6746
2023-03-26T03:29:41.212Z,939.6715
2023-03-26T03:30:42.897Z,939.6562
2023-03-26T03:31:44.520Z,939.6323
2023-03-26T03:32:46.238Z,939.5823
2023-03-26T03:33:47.819Z,939.5477
2023-03-26T03:34:49.438Z,939.5800
2023-03-26T03:35:51.113Z,939.6077
2023-03-26T03:36:52.726Z,939.6092
2023-03-26T03:37:54.415Z,939.5992
2023-03-26T03:38:56.041Z,939.6154
2023-03-26T03:39:57.694Z,939.6192
2023-03-26T03:40:59.324Z,939.5908
2023-03-26T03:42:00.998Z,939.5670
2023-03-26T03:43:02.665Z,939.5408
2023-03-26T03:44:04.300Z,939.5308
2023-03-26T03:45:05.928Z,939.5023
2023-03-26T03:46:07.639Z,939.4923
2023-03-26T03:47:09.211Z,939.4815
2023-03-26T03:48:10.942Z,939.4547
2023-03-26T03:49:12.526Z,939.4423
2023-03-26T03:50:14.200Z,939.4238
2023-03-26T03:51:15.841Z,939.3977
2023-03-26T03:52:17.487Z,939.3923
2023-03-26T03:53:19.144Z,939.3923
2023-03-26T03:54:20.786Z,939.3885
2023-03-26T03:55:22.409Z,939.3708
2023-03-26T03:56:24.101Z,939.3423
2023-03-26T03:57:25.728Z,939.3170
2023-03-26T03:58:27.424Z,939.3246
2023-03-26T03:59:29.004Z,939.3431
2023-03-26T04:00:30.696Z,939.3685
2023-03-26T04:01:32.304Z,939.3877
2023-03-26T04:02:34.076Z,939.3738
2023-03-26T04:03:35.778Z,939.3300
2023-03-26T04:04:37.331Z,939.2931
2023-03-26T04:05:38.920Z,939.2577
2023-03-26T04:06:40.579Z,939.2246
2023-03-26T04:07:42.206Z,939.2184
2023-03-26T04:08:43.995Z,939.2154
2023-03-26T04:09:45.504Z,939.2208
2023-03-26T04:10:47.163Z,939.2231
2023-03-26T04:11:48.802Z,939.2430
2023-03-26T04:12:50.461Z,939.2577
2023-03-26T04:13:52.113Z,939.2531
2023-03-26T04:14:53.756Z,939.2123
2023-03-26T04:15:55.656Z,939.1685
2023-03-26T04:16:57.061Z,939.1215
2023-03-26T04:17:58.760Z,939.1031
2023-03-26T04:19:00.371Z,939.0954
2023-03-26T04:20:01.983Z,939.1061
2023-03-26T04:21:03.638Z,939.1000
2023-03-26T04:22:05.288Z,939.0754
2023-03-26T04:23:06.948Z,939.0162
2023-03-26T04:24:08.597Z,938.9600
2023-03-26T04:25:10.259Z,938.9215
2023-03-26T04:26:11.867Z,938.8915
2023-03-26T04:27:13.527Z,938.8770
2023-03-26T04:28:15.162Z,938.8500
2023-03-26T04:29:16.844Z,938.8177
2023-03-26T04:30:18.456Z,938.7877
2023-03-26T04:31:20.163Z,938.7646
2023-03-26T04:32:21.773Z,938.7600
2023-03-26T04:33:23.438Z,938.7723
2023-03-26T04:34:25.127Z,938.7731
2023-03-26T04:35:26.763Z,938.7662
2023-03-26T04:36:28.390Z,938.7200
2023-03-26T04:37:30.020Z,938.6639
2023-03-26T04:38:31.645Z,938.6093
2023-03-26T04:39:33.352Z,938.5723
2023-03-26T04:40:34.969Z,938.5638
2023-03-26T04:41:36.630Z,938.5508
2023-03-26T04:42:38.253Z,938.5562
2023-03-26T04:43:39.929Z,938.5638
2023-03-26T04:44:41.638Z,938.5562
2023-03-26T04:45:43.209Z,938.5508
2023-03-26T04:46:44.853Z,938.5316
2023-03-26T04:47:46.802Z,938.5100
2023-03-26T04:48:48.141Z,938.5146
2023-03-26T04:49:49.839Z,938.5239
2023-03-26T04:50:51.448Z,938.5162
2023-03-26T04:51:53.095Z,938.5115
2023-03-26T04:52:54.750Z,938.5146
2023-03-26T04:53:56.418Z,938.5247
2023-03-26T04:54:58.060Z,938.5408
2023-03-26T04:55:59.699Z,938.5531
2023-03-26T04:57:01.343Z,938.5431
2023-03-26T04:58:02.986Z,938.5231
2023-03-26T04:59:04.628Z,938.4992
2023-03-26T05:00:06.317Z,938.4623
2023-03-26T05:01:10.318Z,938.4354
2023-03-26T05:02:09.620Z,938.3669
2023-03-26T05:03:11.218Z,938.3100
2023-03-26T05:04:12.893Z,938.2831
2023-03-26T05:05:14.543Z,938.2992
2023-03-26T05:06:16.195Z,938.3054
2023-03-26T05:07:17.819Z,938.3046
2023-03-26T05:08:19.492Z,938.2831
2023-03-26T05:09:21.126Z,938.2631
2023-03-26T05:10:22.869Z,938.2462
2023-03-26T05:11:24.430Z,938.2292
2023-03-26T05:12:26.100Z,938.2085
2023-03-26T05:13:27.713Z,938.2192
2023-03-26T05:14:29.390Z,938.2338
2023-03-26T05:15:31.053Z,938.2300
2023-03-26T05:16:32.706Z,938.1877
2023-03-26T05:17:34.382Z,938.1185
2023-03-26T05:18:36.015Z,938.0577
2023-03-26T05:19:37.624Z,938.0385
2023-03-26T05:20:39.328Z,938.0054
2023-03-26T05:21:40.933Z,938.0008
2023-03-26T05:22:42.592Z,937.9854
2023-03-26T05:23:44.233Z,937.9746
2023-03-26T05:24:45.911Z,937.9654
2023-03-26T05:25:47.567Z,937.9400
2023-03-26T05:26:49.205Z,937.9238
2023-03-26T05:27:50.820Z,937.9154
2023-03-26T05:28:52.733Z,937.8746
2023-03-26T05:29:54.109Z,937.8508
2023-03-26T05:30:55.984Z,937.8246
2023-03-26T05:31:57.432Z,937.7977
2023-03-26T05:32:59.125Z,937.7654
2023-03-26T05:34:00.861Z,937.7369
2023-03-26T05:35:02.352Z,937.7223
2023-03-26T05:36:04.081Z,937.7161
2023-03-26T05:37:05.667Z,937.6970
2023-03-26T05:38:07.317Z,937.6885
2023-03-26T05:39:08.947Z,937.7338
2023-03-26T05:40:10.640Z,937.7800
2023-03-26T05:41:12.285Z,937.8123
2023-03-26T05:42:13.922Z,937.7931
2023-03-26T05:43:15.549Z,937.8108
2023-03-26T05:44:17.234Z,937.8500
2023-03-26T05:45:18.853Z,937.8546
2023-03-26T05:46:20.653Z,937.9046
2023-03-26T05:47:22.143Z,937.9069
2023-03-26T05:48:23.828Z,937.9392
2023-03-26T05:49:25.460Z,937.9370
2023-03-26T05:50:27.129Z,937.9500
2023-03-26T05:51:28.775Z,937.9330
2023-03-26T05:52:30.430Z,937.9377
2023-03-26T05:53:32.066Z,937.9485
2023-03-26T05:54:33.740Z,937.9615
2023-03-26T05:55:35.365Z,937.9915
2023-03-26T05:56:37.175Z,938.0139
2023-03-26T05:57:38.734Z,937.9723
2023-03-26T05:58:40.413Z,937.9631
2023-03-26T05:59:42.029Z,937.9639
2023-03-26T06:00:43.705Z,937.9500
2023-03-26T06:01:45.362Z,937.9370
2023-03-26T06:02:47.091Z,937.9092
2023-03-26T06:03:48.707Z,937.8600
2023-03-26T06:04:50.349Z,937.7569
2023-03-26T06:05:51.933Z,937.6793
2023-03-26T06:06:53.634Z,937.5769
2023-03-26T06:07:55.224Z,937.4446
2023-03-26T06:09:01.910Z,937.3762
2023-03-26T06:09:58.533Z,937.3170
2023-03-26T06:11:00.221Z,937.2538
2023-03-26T06:12:01.874Z,937.2054
2023-03-26T06:13:03.513Z,937.1692
2023-03-26T06:14:05.126Z,937.1561
2023-03-26T06:15:06.807Z,937.1523
2023-03-26T06:16:08.459Z,937.1069
2023-03-26T06:17:10.180Z,937.0231
2023-03-26T06:18:11.791Z,936.9962
2023-03-26T06:19:13.519Z,937.0423
2023-03-26T06:20:15.037Z,937.0839
2023-03-26T06:21:16.704Z,937.0969
2023-03-26T06:22:18.358Z,937.0815
2023-03-26T06:23:19.996Z,937.0569
2023-03-26T06:24:21.630Z,937.0492
2023-03-26T06:25:23.295Z,937.0431
2023-03-26T06:26:24.936Z,937.0247
2023-03-26T06:27:26.625Z,936.9962
2023-03-26T06:28:28.244Z,936.9800
2023-03-26T06:29:29.918Z,936.9684
2023-03-26T06:30:31.551Z,936.9477
2023-03-26T06:31:33.257Z,936.9230
2023-03-26T06:32:34.913Z,936.9231
2023-03-26T06:33:36.517Z,936.9669
2023-03-26T06:34:38.146Z,936.9923
2023-03-26T06:35:39.855Z,936.9908
2023-03-26T06:36:41.465Z,936.9708
2023-03-26T06:37:43.146Z,936.9615
2023-03-26T06:38:44.770Z,936.9661
2023-03-26T06:39:46.429Z,936.9830
2023-03-26T06:40:48.069Z,937.0316
2023-03-26T06:41:49.730Z,937.0808
2023-03-26T06:43:08.643Z,937.1277
2023-03-26T06:43:53.048Z,937.1900
2023-03-26T06:44:54.669Z,937.2538
2023-03-26T06:45:56.357Z,937.2953
2023-03-26T06:46:58.046Z,937.3077
2023-03-26T06:47:59.734Z,937.3123
2023-03-26T06:49:01.283Z,937.3439
2023-03-26T06:50:02.977Z,937.3977
2023-03-26T06:51:04.608Z,937.4438
2023-03-26T06:52:06.274Z,937.4977
2023-03-26T06:53:07.913Z,937.5485
2023-03-26T06:54:09.563Z,937.6193
2023-03-26T06:55:11.220Z,937.6608
2023-03-26T06:56:12.873Z,937.6730
2023-03-26T06:57:14.527Z,937.6577
2023-03-26T06:58:16.210Z,937.6661
2023-03-26T06:59:17.846Z,937.6661
2023-03-26T07:00:19.485Z,937.6615
2023-03-26T07:01:21.165Z,937.6431
2023-03-26T07:02:22.819Z,937.6061
2023-03-26T07:03:24.433Z,937.5700
2023-03-26T07:04:26.110Z,937.5323
2023-03-26T07:05:27.781Z,937.4454
2023-03-26T07:06:29.391Z,937.3692
2023-03-26T07:07:31.047Z,937.3862
2023-03-26T07:08:32.720Z,937.3600
2023-03-26T07:09:34.360Z,937.3154
2023-03-26T07:10:35.987Z,937.3246
2023-03-26T07:11:37.656Z,937.2954
2023-03-26T07:12:39.292Z,937.2600
2023-03-26T07:13:40.978Z,937.2808
2023-03-26T07:14:42.601Z,937.2692
2023-03-26T07:15:44.282Z,937.2223
2023-03-26T07:16:45.903Z,937.2100
2023-03-26T07:17:47.577Z,937.2408
2023-03-26T07:18:49.452Z,937.3054
2023-03-26T07:19:50.874Z,937.2885
2023-03-26T07:20:52.605Z,937.2415
2023-03-26T07:21:54.177Z,937.1823
2023-03-26T07:22:55.801Z,937.1615
2023-03-26T07:23:57.493Z,937.1923
2023-03-26T07:24:59.111Z,937.1862
2023-03-26T07:26:00.786Z,937.1508
2023-03-26T07:27:02.429Z,937.1308
2023-03-26T07:28:04.088Z,937.1346
2023-03-26T07:29:05.728Z,937.1292
2023-03-26T07:30:07.396Z,937.1046
2023-03-26T07:31:09.015Z,937.1177
2023-03-26T07:32:10.680Z,937.1631
2023-03-26T07:33:12.314Z,937.1761
2023-03-26T07:34:14.011Z,937.0900
2023-03-26T07:35:15.629Z,937.0931
2023-03-26T07:36:17.304Z,937.1000
2023-03-26T07:37:18.925Z,937.0254
2023-03-26T07:38:20.592Z,937.0431
2023-03-26T07:39:22.250Z,937.0731
2023-03-26T07:40:23.900Z,936.9269
2023-03-26T07:41:25.537Z,936.8770
2023-03-26T07:42:27.223Z,936.9615
2023-03-26T07:43:28.852Z,936.8854
2023-03-26T07:44:30.525Z,936.7684
2023-03-26T07:45:32.165Z,936.7477
2023-03-26T07:46:33.800Z,936.7123
2023-03-26T07:47:35.478Z,936.8185
2023-03-26T07:48:37.104Z,936.8138
2023-03-26T07:49:38.758Z,936.7869
2023-03-26T07:50:40.410Z,936.7608
2023-03-26T07:51:42.048Z,936.7084
2023-03-26T07:52:43.708Z,936.6870
2023-03-26T07:53:45.341Z,936.6900
2023-03-26T07:54:47.048Z,936.6830
2023-03-26T07:55:48.663Z,936.6646
2023-03-26T07:56:50.386Z,936.6584
2023-03-26T07:57:51.936Z,936.6615
2023-03-26T07:58:53.615Z,936.6715
2023-03-26T07:59:55.266Z,936.6908
2023-03-26T08:00:57.125Z,936.6792
2023-03-26T08:01:58.543Z,936.6315
2023-03-26T08:03:00.286Z,936.5885
2023-03-26T08:04:23.424Z,936.5615
2023-03-26T08:05:03.597Z,936.5469
2023-03-26T08:06:05.134Z,936.5154
2023-03-26T08:07:06.803Z,936.5077
2023-03-26T08:08:08.443Z,936.5377
2023-03-26T08:09:10.109Z,936.5700
2023-03-26T08:10:12.016Z,936.5946
2023-03-26T08:11:13.422Z,936.6754
2023-03-26T08:12:15.039Z,936.6600
2023-03-26T08:13:16.732Z,936.6454
2023-03-26T08:14:18.336Z,936.6262
2023-03-26T08:15:20.037Z,936.6292
2023-03-26T08:16:21.666Z,936.6423
2023-03-26T08:17:23.346Z,936.5977
2023-03-26T08:18:24.942Z,936.5662
2023-03-26T08:19:26.612Z,936.5623
2023-03-26T08:20:28.339Z,936.5630
2023-03-26T08:21:29.918Z,936.5408
2023-03-26T08:22:31.591Z,936.5339
2023-03-26T08:23:33.220Z,936.5354
2023-03-26T08:24:34.893Z,936.5277
2023-03-26T08:25:38.001Z,936.4708
2023-03-26T08:26:38.146Z,936.4354
2023-03-26T08:27:39.809Z,936.3892
2023-03-26T08:28:41.471Z,936.3777
2023-03-26T08:29:43.133Z,936.3947
2023-03-26T08:30:44.812Z,936.3954
2023-03-26T08:31:46.411Z,936.3723
2023-03-26T08:32:48.132Z,936.3569
2023-03-26T08:33:49.731Z,936.3646
2023-03-26T08:34:51.402Z,936.3392
2023-03-26T08:35:53.132Z,936.3285
2023-03-26T08:36:54.721Z,936.3384
2023-03-26T08:37:56.332Z,936.3085
2023-03-26T08:38:58.001Z,936.3108
2023-03-26T08:39:59.643Z,936.3454
2023-03-26T08:41:01.332Z,936.3500
2023-03-26T08:42:02.931Z,936.3623
2023-03-26T08:43:04.602Z,936.3939
2023-03-26T08:44:06.260Z,936.4215
2023-03-26T08:45:07.927Z,936.3754
2023-03-26T08:46:09.597Z,936.3246
2023-03-26T08:47:11.204Z,936.3030
2023-03-26T08:48:12.844Z,936.3192
2023-03-26T08:49:14.501Z,936.3823
2023-03-26T08:50:16.238Z,936.4669
2023-03-26T08:51:17.836Z,936.5308
2023-03-26T08:52:19.446Z,936.5423
2023-03-26T08:53:21.116Z,936.5316
2023-03-26T08:54:22.750Z,936.6116
2023-03-26T08:55:24.423Z,936.6638
2023-03-26T08:56:26.098Z,936.5992
2023-03-26T08:57:27.716Z,936.5707
2023-03-26T08:58:29.352Z,936.5100
2023-03-26T08:59:31.029Z,936.4792
2023-03-26T09:00:32.663Z,936.4100
2023-03-26T09:01:34.393Z,936.3192
2023-03-26T09:02:36.030Z,936.2985
2023-03-26T09:03:37.625Z,936.3946
2023-03-26T09:04:39.272Z,936.4415
2023-03-26T09:05:40.958Z,936.4223
2023-03-26T09:06:42.646Z,936.4385
2023-03-26T09:07:44.293Z,936.4408
2023-03-26T09:08:54.212Z,936.4338
2023-03-26T09:09:47.505Z,936.4285
2023-03-26T09:10:49.154Z,936.3723
2023-03-26T09:11:50.823Z,936.3138
2023-03-26T09:12:52.440Z,936.3246
2023-03-26T09:13:54.132Z,936.3792
2023-03-26T09:14:55.757Z,936.4823
2023-03-26T09:15:57.511Z,936.5662
2023-03-26T09:16:59.080Z,936.6008
2023-03-26T09:18:00.762Z,936.7592
2023-03-26T09:19:02.345Z,936.9185
2023-03-26T09:20:04.026Z,937.0192
2023-03-26T09:21:05.673Z,936.9531
2023-03-26T09:22:07.380Z,936.8454
2023-03-26T09:23:08.960Z,936.7746
2023-03-26T09:24:10.624Z,936.7877
2023-03-26T09:25:12.276Z,936.8931
2023-03-26T09:26:13.929Z,936.9346
2023-03-26T09:27:15.589Z,936.8115
2023-03-26T09:28:17.225Z,936.8362
2023-03-26T09:29:18.855Z,936.8154
2023-03-26T09:30:20.505Z,936.8907
2023-03-26T09:31:22.202Z,936.9731
2023-03-26T09:32:23.942Z,936.9885
2023-03-26T09:33:25.477Z,936.9992
2023-03-26T09:34:27.144Z,936.9877
2023-03-26T09:35:28.764Z,936.9654
2023-03-26T09:36:30.472Z,936.9415
2023-03-26T09:37:32.083Z,936.8915
2023-03-26T09:38:33.741Z,936.8231
2023-03-26T09:39:35.363Z,936.7946
2023-03-26T09:40:37.035Z,936.8331
2023-03-26T09:41:38.658Z,936.7969
2023-03-26T09:42:40.359Z,936.8023
2023-03-26T09:43:41.996Z,936.7623
2023-03-26T09:44:43.628Z,936.7977
2023-03-26T09:45:45.275Z,936.8869
2023-03-26T09:46:46.936Z,936.8693
2023-03-26T09:47:48.648Z,936.8862
2023-03-26T09:48:50.237Z,936.9084
2023-03-26T09:49:51.865Z,936.8900
2023-03-26T09:50:53.719Z,936.9285
2023-03-26T09:51:55.146Z,936.9531
2023-03-26T09:52:56.845Z,936.9370
2023-03-26T09:53:58.447Z,936.9838
2023-03-26T09:55:00.162Z,936.8577
2023-03-26T09:56:01.772Z,936.5954
2023-03-26T09:57:03.465Z,936.6631
2023-03-26T09:58:05.134Z,936.5439
2023-03-26T09:59:06.854Z,936.5485
2023-03-26T10:00:08.423Z,936.5062
2023-03-26T10:01:10.144Z,936.5416
2023-03-26T10:02:11.717Z,936.5162
2023-03-26T10:03:13.465Z,936.5815
2023-03-26T10:04:15.024Z,936.5562
2023-03-26T10:05:16.690Z,936.5600
2023-03-26T10:06:18.313Z,936.6315
2023-03-26T10:07:19.984Z,936.6138
2023-03-26T10:08:21.641Z,936.4815
2023-03-26T10:09:23.290Z,936.5146
2023-03-26T10:10:24.906Z,936.5700
2023-03-26T10:11:26.588Z,936.5400
2023-03-26T10:12:28.222Z,936.5939
2023-03-26T10:13:29.928Z,936.6193
2023-03-26T10:14:31.532Z,936.6215
2023-03-26T10:15:33.198Z,936.6561
2023-03-26T10:16:34.880Z,936.7869
2023-03-26T10:17:37.179Z,936.7631
2023-03-26T10:18:38.166Z,936.8492
2023-03-26T10:19:39.808Z,936.7816
2023-03-26T10:20:41.434Z,936.7400
2023-03-26T10:21:43.096Z,936.7208
2023-03-26T10:22:44.742Z,936.7054
2023-03-26T10:23:46.425Z,936.6531
2023-03-26T10:24:48.044Z,936.6439
2023-03-26T10:25:49.745Z,936.6385
2023-03-26T10:27:08.589Z,936.5908
2023-03-26T10:27:53.014Z,936.5754
2023-03-26T10:28:54.677Z,936.5077
2023-03-26T10:29:56.325Z,936.4308
2023-03-26T10:30:58.118Z,936.3969
2023-03-26T10:31:59.616Z,936.3946
2023-03-26T10:33:01.324Z,936.4277
2023-03-26T10:34:02.959Z,936.3869
2023-03-26T10:35:04.555Z,936.4100
2023-03-26T10:36:06.251Z,936.3962
2023-03-26T10:37:07.851Z,936.4100
2023-03-26T10:38:09.527Z,936.3469
2023-03-26T10:39:11.183Z,936.3038
2023-03-26T10:40:12.830Z,936.3593
2023-03-26T10:41:14.491Z,936.3723
2023-03-26T10:42:16.123Z,936.4008
2023-03-26T10:43:17.763Z,936.4338
2023-03-26T10:44:19.508Z,936.4285
2023-03-26T10:45:21.096Z,936.4592
2023-03-26T10:46:22.772Z,936.5069
2023-03-26T10:47:24.432Z,936.5131
2023-03-26T10:48:26.054Z,936.5092
2023-03-26T10:49:27.750Z,936.5246
2023-03-26T10:50:29.362Z,936.5316
2023-03-26T10:51:30.972Z,936.5400
2023-03-26T10:52:32.670Z,936.5377
2023-03-26T10:53:34.295Z,936.6031
2023-03-26T10:54:35.999Z,936.6808
2023-03-26T10:55:37.596Z,936.7254
2023-03-26T10:56:39.290Z,936.7315
2023-03-26T10:57:40.896Z,936.7400
2023-03-26T10:58:48.590Z,936.7154
2023-03-26T10:59:44.247Z,936.7192
2023-03-26T11:00:45.892Z,936.7600
2023-03-26T11:01:47.524Z,936.7777
2023-03-26T11:02:49.225Z,936.7885
2023-03-26T11:03:50.827Z,936.8146
2023-03-26T11:04:52.517Z,936.7800
2023-03-26T11:05:54.191Z,936.7446
2023-03-26T11:06:55.800Z,936.7931
2023-03-26T11:07:57.430Z,936.8354
2023-03-26T11:08:59.136Z,936.8000
2023-03-26T11:10:00.746Z,936.7700
2023-03-26T11:11:02.395Z,936.7831
2023-03-26T11:12:26.223Z,936.7854
2023-03-26T11:13:05.691Z,936.7662
2023-03-26T11:14:07.339Z,936.7454
2023-03-26T11:15:09.106Z,936.7092
2023-03-26T11:16:10.642Z,936.7008
2023-03-26T11:17:14.915Z,936.7308
2023-03-26T11:18:13.963Z,936.7184
2023-03-26T11:19:15.591Z,936.7692
2023-03-26T11:20:17.292Z,936.7508
2023-03-26T11:21:20.635Z,936.6777
2023-03-26T11:22:20.527Z,936.6531
2023-03-26T11:23:22.211Z,936.6523
2023-03-26T11:24:23.812Z,936.6277
2023-03-26T11:25:25.532Z,936.6285
2023-03-26T11:26:27.137Z,936.5054
2023-03-26T11:27:28.792Z,936.4838
2023-03-26T11:28:30.446Z,936.4677
2023-03-26T11:29:33.494Z,936.5092
2023-03-26T11:30:33.767Z,936.5254
2023-03-26T11:31:35.433Z,936.5438
2023-03-26T11:32:37.070Z,936.5692
2023-03-26T11:33:38.689Z,936.5670
2023-03-26T11:34:40.347Z,936.5331
2023-03-26T11:35:42.013Z,936.5531
2023-03-26T11:36:43.630Z,936.5670
2023-03-26T11:37:45.308Z,936.5615
2023-03-26T11:38:46.965Z,936.5615
2023-03-26T11:39:48.584Z,936.5531
2023-03-26T11:40:50.249Z,936.5416
2023-03-26T11:41:51.901Z,936.5246
2023-03-26T11:42:53.540Z,936.5046
2023-03-26T11:43:55.217Z,936.4623
2023-03-26T11:44:56.861Z,936.4169
2023-03-26T11:45:58.550Z,936.4515
2023-03-26T11:47:00.126Z,936.4715
2023-03-26T11:48:01.854Z,936.4331
2023-03-26T11:49:03.407Z,936.3946
2023-03-26T11:50:05.143Z,936.3770
2023-03-26T11:51:06.783Z,936.3846
2023-03-26T11:52:08.393Z,936.3846
2023-03-26T11:53:10.039Z,936.4154
2023-03-26T11:54:11.714Z,936.3754
2023-03-26T11:55:13.343Z,936.3700
2023-03-26T11:56:15.174Z,936.3561
2023-03-26T11:57:16.694Z,936.3885
2023-03-26T11:58:18.307Z,936.3408
2023-03-26T11:59:21.650Z,936.3031
2023-03-26T12:00:21.607Z,936.2792
2023-03-26T12:01:23.250Z,936.2446
2023-03-26T12:02:25.076Z,936.2607
2023-03-26T12:03:26.551Z,936.2154